Terminal Aerodrome Forecast
Issued by NWS St Louis, MO

Home | Current Version | Previous Version | Graphics & Text | Print | Product List | Glossary On
Versions: 1 2 3 4 5 6 7 8 9 10 11 12 13 14 15 16 17 18 19 20 21 22 23
000
FTUS43 KLSX 251100
TAFSTL
TAF
KSTL 251121Z 2512/2618 24009KT P6SM -RA OVC040
     FM251800 31011KT 4SM -RA BR SCT007 OVC010
     FM252300 35015G25KT 2SM -SN BR OVC006
     FM260100 33012KT P6SM OVC012
     FM261000 32006KT P6SM SCT010=

USA.gov is the U.S. government's official web portal to all federal, state and local government web resources and services.